Terminal Aerodrome Forecast
Issued by NWS North Platte, NE

Home | Current Version | Previous Version | Text Only | Print | Product List | Glossary On
Versions: 1 2 3 4 5 6 7 8 9 10 11 12 13 14 15 16 17 18 19 20 21 22 23 24 25 26 27 28 29
000
FTUS43 KLBF 210500
TAFLBF
TAF
KLBF 210520Z 2106/2206 29005KT P6SM SCT100
     FM211600 29010KT P6SM SKC
     FM212100 30014G21KT P6SM SCT090
     FM220100 36014KT P6SM SKC=

USA.gov is the U.S. government's official web portal to all federal, state and local government web resources and services.